AVA149 SBBR-SBEG
Flight info
| Callsign | AVA149 |
|---|---|
| Flight time | 2h 32m |
| Altitude | 34000 |
| Route | UGUGA UM409 UDOMA/N0461F360 UM409 NEMEL DCT IRUMO |
| Aircraft | A320/M-SDE3FGHIRWY/LB1 |
Departure
| Time | 2026-04-27 15:03 |
|---|---|
| Airport | Presidente Juscelino Kubitschek International Airport (SBBR) |
Arrival
| Time | 2026-04-27 17:35 |
|---|---|
| Airport | Eduardo Gomes International Airport (SBEG) |
| Time | Latitude | Longitude | Altitude | Speed | Heading |
|---|---|---|---|---|---|
| 2026-04-27 14:35 | -15.87121 | -47.91817 | 3465 ft | 0 kts | 176° |
| 2026-04-27 14:50 | -15.87111 | -47.91817 | 3464 ft | 4 kts | 173° |
| 2026-04-27 14:50 | -15.87085 | -47.91824 | 3462 ft | 4 kts | 149° |
| 2026-04-27 14:50 | -15.87068 | -47.91841 | 3464 ft | 4 kts | 97° |
| 2026-04-27 14:51 | -15.87068 | -47.91847 | 3463 ft | 0 kts | 86° |
| 2026-04-27 14:52 | -15.87065 | -47.91803 | 3464 ft | 13 kts | 86° |
| 2026-04-27 14:53 | -15.87059 | -47.91699 | 3464 ft | 15 kts | 86° |
| 2026-04-27 14:53 | -15.87069 | -47.91598 | 3464 ft | 15 kts | 139° |
| 2026-04-27 14:53 | -15.87164 | -47.91585 | 3464 ft | 13 kts | 177° |
| 2026-04-27 14:53 | -15.87245 | -47.91580 | 3464 ft | 12 kts | 176° |
| 2026-04-27 14:54 | -15.87371 | -47.91572 | 3463 ft | 21 kts | 176° |
| 2026-04-27 14:54 | -15.87508 | -47.91563 | 3462 ft | 14 kts | 176° |
| 2026-04-27 14:54 | -15.87546 | -47.91560 | 3461 ft | 5 kts | 176° |
| 2026-04-27 14:54 | -15.87556 | -47.91559 | 3461 ft | 0 kts | 176° |
| 2026-04-27 14:55 | -15.87553 | -47.91559 | 3461 ft | 3 kts | 176° |
| 2026-04-27 14:55 | -15.87507 | -47.91563 | 3462 ft | 10 kts | 175° |
| 2026-04-27 14:55 | -15.87413 | -47.91571 | 3462 ft | 17 kts | 182° |
| 2026-04-27 14:55 | -15.87300 | -47.91584 | 3464 ft | 11 kts | 167° |
| 2026-04-27 14:56 | -15.87310 | -47.91599 | 3464 ft | 6 kts | 235° |
| 2026-04-27 14:56 | -15.87314 | -47.91633 | 3464 ft | 5 kts | 269° |
| 2026-04-27 14:56 | -15.87367 | -47.91669 | 3464 ft | 9 kts | 168° |
| 2026-04-27 14:56 | -15.87447 | -47.91634 | 3467 ft | 14 kts | 147° |
| 2026-04-27 14:57 | -15.87541 | -47.91635 | 3469 ft | 22 kts | 205° |
| 2026-04-27 14:57 | -15.87637 | -47.91642 | 3470 ft | 11 kts | 179° |
| 2026-04-27 14:57 | -15.87733 | -47.91676 | 3469 ft | 19 kts | 245° |
| 2026-04-27 14:57 | -15.87744 | -47.91801 | 3469 ft | 16 kts | 266° |
| 2026-04-27 14:58 | -15.87751 | -47.91909 | 3470 ft | 15 kts | 266° |
| 2026-04-27 14:58 | -15.87760 | -47.92053 | 3470 ft | 23 kts | 266° |
| 2026-04-27 14:58 | -15.87770 | -47.92216 | 3470 ft | 23 kts | 266° |
| 2026-04-27 14:58 | -15.87779 | -47.92379 | 3471 ft | 23 kts | 265° |
| 2026-04-27 14:59 | -15.87792 | -47.92544 | 3471 ft | 23 kts | 266° |
| 2026-04-27 14:59 | -15.87802 | -47.92707 | 3471 ft | 23 kts | 266° |
| 2026-04-27 14:59 | -15.87813 | -47.92874 | 3471 ft | 23 kts | 266° |
| 2026-04-27 14:59 | -15.87824 | -47.93042 | 3471 ft | 23 kts | 266° |
| 2026-04-27 15:00 | -15.87835 | -47.93211 | 3472 ft | 23 kts | 266° |
| 2026-04-27 15:00 | -15.87846 | -47.93379 | 3473 ft | 23 kts | 266° |
| 2026-04-27 15:00 | -15.87856 | -47.93547 | 3473 ft | 23 kts | 266° |
| 2026-04-27 15:00 | -15.87867 | -47.93715 | 3474 ft | 23 kts | 266° |
| 2026-04-27 15:01 | -15.87878 | -47.93880 | 3472 ft | 23 kts | 266° |
| 2026-04-27 15:01 | -15.87920 | -47.93994 | 3476 ft | 14 kts | 207° |
| 2026-04-27 15:01 | -15.87975 | -47.93998 | 3474 ft | 2 kts | 172° |
| 2026-04-27 15:01 | -15.88030 | -47.93987 | 3489 ft | 20 kts | 157° |
| 2026-04-27 15:02 | -15.88059 | -47.93859 | 3486 ft | 18 kts | 85° |
| 2026-04-27 15:02 | -15.88047 | -47.93683 | 3485 ft | 45 kts | 86° |
| 2026-04-27 15:02 | -15.88010 | -47.93107 | 3478 ft | 112 kts | 86° |
| 2026-04-27 15:02 | -15.87945 | -47.92104 | 3472 ft | 164 kts | 86° |
| 2026-04-27 15:03 | -15.87865 | -47.90819 | 3848 ft | 179 kts | 84° |
| 2026-04-27 15:03 | -15.87774 | -47.89527 | 4582 ft | 182 kts | 86° |
| 2026-04-27 15:03 | -15.87684 | -47.88222 | 5246 ft | 184 kts | 86° |
| 2026-04-27 15:03 | -15.87593 | -47.86836 | 5477 ft | 203 kts | 87° |
| 2026-04-27 15:04 | -15.87517 | -47.85310 | 5703 ft | 220 kts | 88° |
| 2026-04-27 15:04 | -15.87424 | -47.83640 | 5934 ft | 242 kts | 86° |
| 2026-04-27 15:04 | -15.87295 | -47.81818 | 6223 ft | 264 kts | 86° |
| 2026-04-27 15:04 | -15.87162 | -47.79870 | 6664 ft | 275 kts | 86° |
| 2026-04-27 15:05 | -15.86768 | -47.77927 | 7375 ft | 279 kts | 66° |
| 2026-04-27 15:05 | -15.85648 | -47.76272 | 7983 ft | 285 kts | 41° |
| 2026-04-27 15:05 | -15.83954 | -47.75206 | 8653 ft | 288 kts | 18° |
| 2026-04-27 15:05 | -15.81982 | -47.74901 | 9368 ft | 289 kts | 355° |
| 2026-04-27 15:06 | -15.80030 | -47.75381 | 9908 ft | 290 kts | 338° |
| 2026-04-27 15:06 | -15.78169 | -47.76188 | 10033 ft | 292 kts | 336° |
| 2026-04-27 15:06 | -15.76226 | -47.77070 | 10063 ft | 319 kts | 336° |
| 2026-04-27 15:06 | -15.74175 | -47.78013 | 10065 ft | 328 kts | 336° |
| 2026-04-27 15:07 | -15.72096 | -47.79079 | 10066 ft | 344 kts | 327° |
| 2026-04-27 15:07 | -15.70207 | -47.80697 | 10062 ft | 359 kts | 313° |
| 2026-04-27 15:07 | -15.68757 | -47.82811 | 10149 ft | 364 kts | 297° |
| 2026-04-27 15:07 | -15.67895 | -47.85297 | 10683 ft | 369 kts | 282° |
| 2026-04-27 15:08 | -15.67643 | -47.87952 | 11273 ft | 372 kts | 270° |
| 2026-04-27 15:08 | -15.67622 | -47.90612 | 11853 ft | 375 kts | 270° |
| 2026-04-27 15:08 | -15.67609 | -47.93331 | 12410 ft | 379 kts | 270° |
| 2026-04-27 15:08 | -15.67603 | -47.96084 | 12975 ft | 383 kts | 269° |
| 2026-04-27 15:09 | -15.67600 | -47.98856 | 13532 ft | 386 kts | 269° |
| 2026-04-27 15:09 | -15.67599 | -48.01655 | 14045 ft | 390 kts | 269° |
| 2026-04-27 15:09 | -15.67595 | -48.04481 | 14501 ft | 393 kts | 270° |
| 2026-04-27 15:09 | -15.67585 | -48.07332 | 14932 ft | 397 kts | 270° |
| 2026-04-27 15:10 | -15.67573 | -48.10209 | 15350 ft | 401 kts | 270° |
| 2026-04-27 15:10 | -15.67562 | -48.13125 | 15749 ft | 406 kts | 270° |
| 2026-04-27 15:10 | -15.67553 | -48.16061 | 16192 ft | 409 kts | 270° |
| 2026-04-27 15:10 | -15.67544 | -48.19021 | 16649 ft | 411 kts | 270° |
| 2026-04-27 15:11 | -15.67537 | -48.22002 | 17047 ft | 415 kts | 270° |
| 2026-04-27 15:11 | -15.67532 | -48.25005 | 17472 ft | 418 kts | 270° |
| 2026-04-27 15:11 | -15.67524 | -48.28033 | 17899 ft | 421 kts | 271° |
| 2026-04-27 15:11 | -15.67515 | -48.31079 | 18327 ft | 424 kts | 271° |
| 2026-04-27 15:12 | -15.67456 | -48.34143 | 18687 ft | 426 kts | 276° |
| 2026-04-27 15:12 | -15.66906 | -48.37164 | 19052 ft | 427 kts | 288° |
| 2026-04-27 15:12 | -15.65768 | -48.40005 | 19407 ft | 428 kts | 300° |
| 2026-04-27 15:12 | -15.64085 | -48.42545 | 19753 ft | 428 kts | 312° |
| 2026-04-27 15:13 | -15.61928 | -48.44665 | 20112 ft | 428 kts | 324° |
| 2026-04-27 15:13 | -15.59472 | -48.46411 | 20465 ft | 430 kts | 327° |
| 2026-04-27 15:13 | -15.56984 | -48.48145 | 20790 ft | 432 kts | 327° |
| 2026-04-27 15:13 | -15.54484 | -48.49894 | 21126 ft | 434 kts | 327° |
| 2026-04-27 15:14 | -15.52008 | -48.51628 | 21457 ft | 436 kts | 327° |
| 2026-04-27 15:14 | -15.49489 | -48.53394 | 21769 ft | 438 kts | 327° |
| 2026-04-27 15:14 | -15.46954 | -48.55170 | 22098 ft | 441 kts | 327° |
| 2026-04-27 15:14 | -15.44410 | -48.56952 | 22417 ft | 442 kts | 327° |
| 2026-04-27 15:15 | -15.41856 | -48.58740 | 22733 ft | 444 kts | 327° |
| 2026-04-27 15:15 | -15.39286 | -48.60539 | 23034 ft | 446 kts | 327° |
| 2026-04-27 15:15 | -15.36709 | -48.62344 | 23310 ft | 449 kts | 327° |
| 2026-04-27 15:15 | -15.34113 | -48.64160 | 23585 ft | 451 kts | 327° |
| 2026-04-27 15:16 | -15.31507 | -48.65983 | 23825 ft | 453 kts | 327° |
| 2026-04-27 15:16 | -15.28892 | -48.67808 | 24081 ft | 454 kts | 327° |
| 2026-04-27 15:16 | -15.26270 | -48.69633 | 24339 ft | 455 kts | 327° |
| 2026-04-27 15:16 | -15.23637 | -48.71463 | 24585 ft | 456 kts | 327° |
| 2026-04-27 15:17 | -15.21004 | -48.73297 | 24831 ft | 457 kts | 327° |
| 2026-04-27 15:17 | -15.18368 | -48.75137 | 25076 ft | 457 kts | 327° |
| 2026-04-27 15:17 | -15.15729 | -48.76978 | 25320 ft | 458 kts | 327° |
| 2026-04-27 15:17 | -15.13084 | -48.78822 | 25544 ft | 459 kts | 327° |
| 2026-04-27 15:18 | -15.10430 | -48.80672 | 25766 ft | 461 kts | 327° |
| 2026-04-27 15:18 | -15.07767 | -48.82528 | 25998 ft | 462 kts | 327° |
| 2026-04-27 15:18 | -15.05103 | -48.84390 | 26232 ft | 463 kts | 327° |
| 2026-04-27 15:18 | -15.02435 | -48.86254 | 26452 ft | 464 kts | 327° |
| 2026-04-27 15:19 | -14.99756 | -48.88116 | 26691 ft | 464 kts | 327° |
| 2026-04-27 15:19 | -14.97073 | -48.89979 | 26894 ft | 465 kts | 327° |
| 2026-04-27 15:19 | -14.94385 | -48.91842 | 27098 ft | 465 kts | 327° |
| 2026-04-27 15:19 | -14.91697 | -48.93708 | 27322 ft | 465 kts | 327° |
| 2026-04-27 15:20 | -14.89005 | -48.95577 | 27492 ft | 467 kts | 327° |
| 2026-04-27 15:20 | -14.86305 | -48.97453 | 27671 ft | 468 kts | 327° |
| 2026-04-27 15:20 | -14.83599 | -48.99334 | 27858 ft | 469 kts | 327° |
| 2026-04-27 15:20 | -14.80888 | -49.01221 | 28023 ft | 471 kts | 327° |
| 2026-04-27 15:21 | -14.78170 | -49.03113 | 28193 ft | 471 kts | 327° |
| 2026-04-27 15:21 | -14.75452 | -49.05003 | 28398 ft | 471 kts | 326° |
| 2026-04-27 15:21 | -14.72736 | -49.06890 | 28647 ft | 470 kts | 327° |
| 2026-04-27 15:21 | -14.70027 | -49.08772 | 28899 ft | 469 kts | 326° |
| 2026-04-27 15:22 | -14.67323 | -49.10647 | 29146 ft | 468 kts | 327° |
| 2026-04-27 15:22 | -14.64626 | -49.12515 | 29417 ft | 466 kts | 327° |
| 2026-04-27 15:22 | -14.61935 | -49.14379 | 29671 ft | 465 kts | 327° |
| 2026-04-27 15:22 | -14.59289 | -49.16212 | 29926 ft | 464 kts | 326° |
| 2026-04-27 15:23 | -14.56607 | -49.18069 | 30148 ft | 464 kts | 326° |
| 2026-04-27 15:23 | -14.53931 | -49.19924 | 30363 ft | 463 kts | 326° |
| 2026-04-27 15:23 | -14.51263 | -49.21774 | 30591 ft | 462 kts | 326° |
| 2026-04-27 15:23 | -14.48596 | -49.23622 | 30791 ft | 461 kts | 326° |
| 2026-04-27 15:24 | -14.45935 | -49.25465 | 31027 ft | 460 kts | 326° |
| 2026-04-27 15:24 | -14.43278 | -49.27302 | 31241 ft | 459 kts | 326° |
| 2026-04-27 15:24 | -14.40622 | -49.29137 | 31430 ft | 460 kts | 326° |
| 2026-04-27 15:24 | -14.37968 | -49.30968 | 31646 ft | 459 kts | 326° |
| 2026-04-27 15:25 | -14.35310 | -49.32800 | 31835 ft | 459 kts | 326° |
| 2026-04-27 15:25 | -14.32658 | -49.34629 | 32057 ft | 459 kts | 326° |
| 2026-04-27 15:25 | -14.30006 | -49.36461 | 32271 ft | 458 kts | 326° |
| 2026-04-27 15:25 | -14.27360 | -49.38289 | 32496 ft | 458 kts | 326° |
| 2026-04-27 15:26 | -14.24714 | -49.40117 | 32709 ft | 457 kts | 326° |
| 2026-04-27 15:26 | -14.22077 | -49.41936 | 32957 ft | 456 kts | 326° |
| 2026-04-27 15:26 | -14.20335 | -49.43139 | 33113 ft | 455 kts | 326° |
| 2026-04-27 15:26 | -14.17700 | -49.44963 | 33270 ft | 457 kts | 326° |
| 2026-04-27 15:27 | -14.15063 | -49.46785 | 33476 ft | 456 kts | 326° |
| 2026-04-27 15:27 | -14.12425 | -49.48602 | 33672 ft | 457 kts | 326° |
| 2026-04-27 15:27 | -14.09779 | -49.50421 | 33864 ft | 457 kts | 326° |
| 2026-04-27 15:27 | -14.07138 | -49.52236 | 34070 ft | 456 kts | 326° |
| 2026-04-27 15:28 | -14.04500 | -49.54051 | 34279 ft | 456 kts | 326° |
| 2026-04-27 15:28 | -14.01966 | -49.55998 | 34471 ft | 454 kts | 319° |
| 2026-04-27 15:28 | -13.99584 | -49.58130 | 34680 ft | 454 kts | 319° |
| 2026-04-27 15:28 | -13.97200 | -49.60263 | 34829 ft | 454 kts | 319° |
| 2026-04-27 15:29 | -13.94815 | -49.62392 | 35019 ft | 453 kts | 319° |
| 2026-04-27 15:29 | -13.92436 | -49.64516 | 35187 ft | 453 kts | 319° |
| 2026-04-27 15:29 | -13.90052 | -49.66649 | 35316 ft | 454 kts | 319° |
| 2026-04-27 15:29 | -13.87670 | -49.68780 | 35475 ft | 453 kts | 319° |
| 2026-04-27 15:30 | -13.85295 | -49.70904 | 35633 ft | 453 kts | 319° |
| 2026-04-27 15:30 | -13.82913 | -49.73036 | 35780 ft | 453 kts | 319° |
| 2026-04-27 15:30 | -13.80537 | -49.75160 | 35936 ft | 453 kts | 319° |
| 2026-04-27 15:30 | -13.78153 | -49.77289 | 35988 ft | 455 kts | 319° |
| 2026-04-27 15:31 | -13.73363 | -49.81555 | 35984 ft | 455 kts | 319° |
| 2026-04-27 15:31 | -13.68577 | -49.85819 | 35989 ft | 456 kts | 319° |
| 2026-04-27 15:32 | -13.63786 | -49.90088 | 35988 ft | 455 kts | 319° |
| 2026-04-27 15:32 | -13.59000 | -49.94344 | 35988 ft | 455 kts | 319° |
| 2026-04-27 15:33 | -13.54216 | -49.98604 | 35987 ft | 455 kts | 319° |
| 2026-04-27 15:33 | -13.49425 | -50.02863 | 35986 ft | 456 kts | 319° |
| 2026-04-27 15:34 | -13.44620 | -50.07124 | 35981 ft | 457 kts | 319° |
| 2026-04-27 15:34 | -13.39815 | -50.11398 | 35982 ft | 457 kts | 319° |
| 2026-04-27 15:35 | -13.35001 | -50.15671 | 35989 ft | 458 kts | 319° |
| 2026-04-27 15:35 | -13.30179 | -50.19943 | 35996 ft | 458 kts | 319° |
| 2026-04-27 15:36 | -13.25367 | -50.24221 | 35995 ft | 457 kts | 319° |
| 2026-04-27 15:36 | -13.20557 | -50.28488 | 35994 ft | 457 kts | 319° |
| 2026-04-27 15:37 | -13.15773 | -50.32725 | 35992 ft | 457 kts | 319° |
| 2026-04-27 15:37 | -13.10956 | -50.36991 | 35989 ft | 458 kts | 319° |
| 2026-04-27 15:38 | -13.06136 | -50.41265 | 35989 ft | 458 kts | 319° |
| 2026-04-27 15:38 | -13.01307 | -50.45532 | 35991 ft | 458 kts | 319° |
| 2026-04-27 15:39 | -12.96474 | -50.49789 | 35993 ft | 458 kts | 319° |
| 2026-04-27 15:39 | -12.91645 | -50.54054 | 35995 ft | 458 kts | 319° |
| 2026-04-27 15:40 | -12.86820 | -50.58322 | 35992 ft | 458 kts | 319° |
| 2026-04-27 15:40 | -12.81990 | -50.62584 | 35991 ft | 458 kts | 319° |
| 2026-04-27 15:41 | -12.77165 | -50.66844 | 35988 ft | 458 kts | 319° |
| 2026-04-27 15:41 | -12.72332 | -50.71100 | 35981 ft | 458 kts | 319° |
| 2026-04-27 15:42 | -12.67495 | -50.75360 | 35982 ft | 458 kts | 319° |
| 2026-04-27 15:42 | -12.62665 | -50.79620 | 35984 ft | 459 kts | 319° |
| 2026-04-27 15:43 | -12.57829 | -50.83884 | 35986 ft | 459 kts | 319° |
| 2026-04-27 15:43 | -12.52990 | -50.88137 | 35988 ft | 459 kts | 319° |
| 2026-04-27 15:44 | -12.48147 | -50.92393 | 35983 ft | 459 kts | 319° |
| 2026-04-27 15:44 | -12.43296 | -50.96650 | 35980 ft | 459 kts | 319° |
| 2026-04-27 15:45 | -12.38444 | -51.00905 | 35981 ft | 460 kts | 319° |
| 2026-04-27 15:45 | -12.33592 | -51.05165 | 35983 ft | 460 kts | 319° |
| 2026-04-27 15:46 | -12.28766 | -51.09401 | 35985 ft | 460 kts | 319° |
| 2026-04-27 15:46 | -12.23902 | -51.13672 | 35985 ft | 461 kts | 319° |
| 2026-04-27 15:47 | -12.19029 | -51.17946 | 35990 ft | 462 kts | 319° |
| 2026-04-27 15:47 | -12.14145 | -51.22223 | 35995 ft | 462 kts | 319° |
| 2026-04-27 15:48 | -12.09261 | -51.26501 | 36000 ft | 463 kts | 319° |
| 2026-04-27 15:49 | -12.01932 | -51.32922 | 36006 ft | 463 kts | 319° |
| 2026-04-27 15:49 | -11.97047 | -51.37196 | 36005 ft | 462 kts | 320° |
| 2026-04-27 15:50 | -11.92165 | -51.41462 | 36005 ft | 462 kts | 319° |
| 2026-04-27 15:50 | -11.87287 | -51.45722 | 36004 ft | 461 kts | 320° |
| 2026-04-27 15:51 | -11.82411 | -51.49977 | 36003 ft | 461 kts | 319° |
| 2026-04-27 15:51 | -11.77536 | -51.54234 | 36008 ft | 461 kts | 319° |
| 2026-04-27 15:52 | -11.72659 | -51.58490 | 36004 ft | 461 kts | 320° |
| 2026-04-27 15:52 | -11.67780 | -51.62752 | 36001 ft | 462 kts | 319° |
| 2026-04-27 15:53 | -11.62897 | -51.67004 | 35999 ft | 462 kts | 320° |
| 2026-04-27 15:53 | -11.58004 | -51.71261 | 35999 ft | 462 kts | 320° |
| 2026-04-27 15:54 | -11.53118 | -51.75520 | 36000 ft | 462 kts | 320° |
| 2026-04-27 15:54 | -11.48227 | -51.79776 | 35999 ft | 462 kts | 320° |
| 2026-04-27 15:55 | -11.43367 | -51.84011 | 36000 ft | 463 kts | 320° |
| 2026-04-27 15:55 | -11.38440 | -51.88295 | 35999 ft | 463 kts | 320° |
| 2026-04-27 15:56 | -11.33571 | -51.92524 | 36001 ft | 463 kts | 320° |
| 2026-04-27 15:56 | -11.28670 | -51.96775 | 36001 ft | 463 kts | 320° |
| 2026-04-27 15:57 | -11.23745 | -52.01008 | 35996 ft | 464 kts | 321° |
| 2026-04-27 15:57 | -11.18777 | -52.05205 | 35995 ft | 464 kts | 321° |
| 2026-04-27 15:58 | -11.13802 | -52.09392 | 35999 ft | 464 kts | 321° |
| 2026-04-27 15:58 | -11.08845 | -52.13599 | 36001 ft | 464 kts | 320° |
| 2026-04-27 15:59 | -11.03890 | -52.17808 | 36004 ft | 464 kts | 320° |
| 2026-04-27 15:59 | -10.98931 | -52.22009 | 36001 ft | 464 kts | 321° |
| 2026-04-27 16:00 | -10.93963 | -52.26212 | 36000 ft | 464 kts | 321° |
| 2026-04-27 16:00 | -10.88994 | -52.30406 | 35998 ft | 465 kts | 321° |
| 2026-04-27 16:01 | -10.84023 | -52.34615 | 36004 ft | 465 kts | 320° |
| 2026-04-27 16:01 | -10.79053 | -52.38824 | 36004 ft | 465 kts | 320° |
| 2026-04-27 16:02 | -10.74082 | -52.43023 | 36003 ft | 465 kts | 321° |
| 2026-04-27 16:02 | -10.69103 | -52.47228 | 35997 ft | 466 kts | 320° |
| 2026-04-27 16:03 | -10.64119 | -52.51435 | 35999 ft | 466 kts | 321° |
| 2026-04-27 16:03 | -10.59126 | -52.55645 | 36001 ft | 466 kts | 321° |
| 2026-04-27 16:04 | -10.54130 | -52.59854 | 36004 ft | 466 kts | 321° |
| 2026-04-27 16:04 | -10.49140 | -52.64066 | 36005 ft | 467 kts | 321° |
| 2026-04-27 16:05 | -10.44146 | -52.68285 | 36007 ft | 467 kts | 321° |
| 2026-04-27 16:05 | -10.39146 | -52.72501 | 36004 ft | 468 kts | 320° |
| 2026-04-27 16:06 | -10.34135 | -52.76719 | 36000 ft | 468 kts | 321° |
| 2026-04-27 16:06 | -10.29120 | -52.80944 | 36000 ft | 468 kts | 321° |
| 2026-04-27 16:07 | -10.24106 | -52.85166 | 36007 ft | 468 kts | 321° |
| 2026-04-27 16:07 | -10.19088 | -52.89384 | 36012 ft | 468 kts | 321° |
| 2026-04-27 16:08 | -10.14067 | -52.93596 | 36012 ft | 468 kts | 321° |
| 2026-04-27 16:08 | -10.09048 | -52.97814 | 36011 ft | 468 kts | 321° |
| 2026-04-27 16:09 | -10.04030 | -53.02034 | 36008 ft | 469 kts | 321° |
| 2026-04-27 16:09 | -9.96490 | -53.08362 | 36014 ft | 469 kts | 321° |
| 2026-04-27 16:10 | -9.86576 | -53.16882 | 36018 ft | 468 kts | 318° |
| 2026-04-27 16:11 | -9.79440 | -53.23658 | 36013 ft | 469 kts | 317° |
| 2026-04-27 16:12 | -9.72266 | -53.30404 | 36008 ft | 469 kts | 319° |
| 2026-04-27 16:13 | -9.65027 | -53.37085 | 36013 ft | 469 kts | 319° |
| 2026-04-27 16:13 | -9.57810 | -53.43778 | 36016 ft | 469 kts | 318° |
| 2026-04-27 16:14 | -9.49013 | -53.51947 | 36021 ft | 468 kts | 318° |
| 2026-04-27 16:15 | -9.39370 | -53.60885 | 36021 ft | 468 kts | 319° |
| 2026-04-27 16:16 | -9.29782 | -53.69759 | 36014 ft | 469 kts | 318° |
| 2026-04-27 16:17 | -9.20166 | -53.78677 | 36018 ft | 469 kts | 318° |
| 2026-04-27 16:18 | -9.10550 | -53.87573 | 36022 ft | 468 kts | 319° |
| 2026-04-27 16:19 | -9.05744 | -53.92009 | 36021 ft | 467 kts | 319° |
| 2026-04-27 16:20 | -8.96141 | -54.00876 | 36020 ft | 467 kts | 319° |
| 2026-04-27 16:21 | -8.88937 | -54.07529 | 36023 ft | 467 kts | 319° |
| 2026-04-27 16:22 | -8.79335 | -54.16392 | 36027 ft | 467 kts | 319° |
| 2026-04-27 16:22 | -8.72128 | -54.23024 | 36026 ft | 467 kts | 319° |
| 2026-04-27 16:23 | -8.64923 | -54.29653 | 36027 ft | 467 kts | 319° |
| 2026-04-27 16:24 | -8.60124 | -54.34084 | 36029 ft | 467 kts | 319° |
| 2026-04-27 16:25 | -8.50511 | -54.42932 | 36024 ft | 467 kts | 319° |
| 2026-04-27 16:26 | -8.40930 | -54.51757 | 36030 ft | 467 kts | 319° |
| 2026-04-27 16:27 | -8.31310 | -54.60602 | 36025 ft | 468 kts | 319° |
| 2026-04-27 16:28 | -8.19251 | -54.71665 | 36023 ft | 469 kts | 319° |
| 2026-04-27 16:29 | -8.07185 | -54.82750 | 36016 ft | 470 kts | 319° |
| 2026-04-27 16:30 | -7.97510 | -54.91619 | 36021 ft | 470 kts | 319° |
| 2026-04-27 16:31 | -7.85417 | -55.02713 | 36015 ft | 470 kts | 319° |
| 2026-04-27 16:32 | -7.78153 | -55.09363 | 36013 ft | 470 kts | 319° |
| 2026-04-27 16:33 | -7.70889 | -55.16008 | 36017 ft | 470 kts | 319° |
| 2026-04-27 16:33 | -7.66046 | -55.20433 | 36018 ft | 470 kts | 319° |
| 2026-04-27 16:34 | -7.61207 | -55.24862 | 36017 ft | 470 kts | 319° |
| 2026-04-27 16:34 | -7.56373 | -55.29294 | 36015 ft | 470 kts | 319° |
| 2026-04-27 16:35 | -7.51534 | -55.33714 | 36016 ft | 470 kts | 319° |
| 2026-04-27 16:36 | -7.44281 | -55.40339 | 36021 ft | 469 kts | 319° |
| 2026-04-27 16:36 | -7.39688 | -55.44990 | 36018 ft | 470 kts | 308° |
| 2026-04-27 16:37 | -7.35839 | -55.50313 | 36016 ft | 470 kts | 307° |
| 2026-04-27 16:37 | -7.31991 | -55.55636 | 36013 ft | 470 kts | 307° |
| 2026-04-27 16:38 | -7.28135 | -55.60956 | 36011 ft | 470 kts | 307° |
| 2026-04-27 16:38 | -7.24276 | -55.66271 | 36013 ft | 470 kts | 307° |
| 2026-04-27 16:39 | -7.20426 | -55.71585 | 36016 ft | 470 kts | 307° |
| 2026-04-27 16:39 | -7.16586 | -55.76904 | 36013 ft | 470 kts | 307° |
| 2026-04-27 16:40 | -7.12739 | -55.82223 | 36011 ft | 470 kts | 307° |
| 2026-04-27 16:40 | -7.08891 | -55.87534 | 36010 ft | 470 kts | 307° |
| 2026-04-27 16:41 | -7.05035 | -55.92841 | 36010 ft | 470 kts | 307° |
| 2026-04-27 16:41 | -7.01206 | -55.98122 | 36010 ft | 470 kts | 307° |
| 2026-04-27 16:42 | -6.97359 | -56.03439 | 36007 ft | 470 kts | 307° |
| 2026-04-27 16:42 | -6.93500 | -56.08756 | 36004 ft | 470 kts | 307° |
| 2026-04-27 16:43 | -6.89640 | -56.14070 | 36010 ft | 470 kts | 307° |
| 2026-04-27 16:43 | -6.85784 | -56.19377 | 36011 ft | 470 kts | 307° |
| 2026-04-27 16:44 | -6.81922 | -56.24688 | 36000 ft | 471 kts | 307° |
| 2026-04-27 16:44 | -6.78057 | -56.30010 | 35997 ft | 471 kts | 307° |
| 2026-04-27 16:45 | -6.74189 | -56.35334 | 36007 ft | 471 kts | 307° |
| 2026-04-27 16:45 | -6.70319 | -56.40666 | 36001 ft | 472 kts | 307° |
| 2026-04-27 16:46 | -6.66445 | -56.45999 | 36007 ft | 472 kts | 307° |
| 2026-04-27 16:46 | -6.62570 | -56.51317 | 36012 ft | 471 kts | 307° |
| 2026-04-27 16:47 | -6.58699 | -56.56640 | 36015 ft | 471 kts | 307° |
| 2026-04-27 16:47 | -6.54833 | -56.61960 | 36014 ft | 471 kts | 307° |
| 2026-04-27 16:48 | -6.50960 | -56.67276 | 36004 ft | 472 kts | 307° |
| 2026-04-27 16:48 | -6.47075 | -56.72605 | 35992 ft | 473 kts | 307° |
| 2026-04-27 16:49 | -6.41243 | -56.80617 | 35989 ft | 474 kts | 307° |
| 2026-04-27 16:49 | -6.37348 | -56.85962 | 35999 ft | 474 kts | 307° |
| 2026-04-27 16:50 | -6.33457 | -56.91303 | 36006 ft | 473 kts | 307° |
| 2026-04-27 16:50 | -6.29565 | -56.96641 | 36007 ft | 473 kts | 307° |
| 2026-04-27 16:51 | -6.25663 | -57.01972 | 36004 ft | 474 kts | 307° |
| 2026-04-27 16:51 | -6.21768 | -57.07316 | 36001 ft | 474 kts | 307° |
| 2026-04-27 16:52 | -6.17873 | -57.12658 | 35996 ft | 474 kts | 307° |
| 2026-04-27 16:52 | -6.13971 | -57.18004 | 35996 ft | 474 kts | 307° |
| 2026-04-27 16:53 | -6.10068 | -57.23348 | 35997 ft | 474 kts | 307° |
| 2026-04-27 16:53 | -6.06165 | -57.28693 | 36000 ft | 474 kts | 307° |
| 2026-04-27 16:54 | -6.02267 | -57.34037 | 36002 ft | 474 kts | 307° |
| 2026-04-27 16:54 | -5.98365 | -57.39373 | 36003 ft | 474 kts | 307° |
| 2026-04-27 16:55 | -5.94460 | -57.44705 | 36001 ft | 474 kts | 307° |
| 2026-04-27 16:55 | -5.90559 | -57.50033 | 36006 ft | 473 kts | 307° |
| 2026-04-27 16:56 | -5.86667 | -57.55360 | 36007 ft | 473 kts | 307° |
| 2026-04-27 16:56 | -5.82777 | -57.60685 | 36002 ft | 473 kts | 307° |
| 2026-04-27 16:57 | -5.78889 | -57.66003 | 35997 ft | 472 kts | 307° |
| 2026-04-27 16:57 | -5.74994 | -57.71318 | 35996 ft | 472 kts | 307° |
| 2026-04-27 16:58 | -5.71132 | -57.76592 | 35995 ft | 472 kts | 307° |
| 2026-04-27 16:58 | -5.67242 | -57.81900 | 35998 ft | 472 kts | 307° |
| 2026-04-27 16:59 | -5.63353 | -57.87207 | 35995 ft | 472 kts | 307° |
| 2026-04-27 16:59 | -5.59467 | -57.92522 | 35995 ft | 472 kts | 307° |
| 2026-04-27 17:00 | -5.54289 | -57.99593 | 35990 ft | 472 kts | 307° |
| 2026-04-27 17:01 | -5.50392 | -58.04902 | 35991 ft | 472 kts | 307° |
| 2026-04-27 17:01 | -5.46470 | -58.10249 | 35989 ft | 473 kts | 307° |
| 2026-04-27 17:02 | -5.42594 | -58.15527 | 35983 ft | 473 kts | 307° |
| 2026-04-27 17:02 | -5.38696 | -58.20842 | 35984 ft | 473 kts | 307° |
| 2026-04-27 17:03 | -5.34775 | -58.26189 | 35980 ft | 473 kts | 307° |
| 2026-04-27 17:03 | -5.30900 | -58.31469 | 35979 ft | 473 kts | 307° |
| 2026-04-27 17:04 | -5.27000 | -58.36783 | 35973 ft | 473 kts | 307° |
| 2026-04-27 17:04 | -5.23087 | -58.42094 | 35975 ft | 473 kts | 308° |
| 2026-04-27 17:05 | -5.19185 | -58.47409 | 35976 ft | 473 kts | 307° |
| 2026-04-27 17:05 | -5.15278 | -58.52736 | 35975 ft | 474 kts | 308° |
| 2026-04-27 17:06 | -5.11367 | -58.58064 | 35978 ft | 474 kts | 308° |
| 2026-04-27 17:06 | -5.07450 | -58.63392 | 35979 ft | 474 kts | 308° |
| 2026-04-27 17:07 | -5.03535 | -58.68718 | 35979 ft | 474 kts | 308° |
| 2026-04-27 17:07 | -4.99610 | -58.74037 | 35980 ft | 474 kts | 308° |
| 2026-04-27 17:08 | -4.95692 | -58.79366 | 35977 ft | 475 kts | 308° |
| 2026-04-27 17:08 | -4.91773 | -58.84692 | 35979 ft | 475 kts | 308° |
| 2026-04-27 17:09 | -4.87850 | -58.90021 | 35991 ft | 475 kts | 308° |
| 2026-04-27 17:09 | -4.83920 | -58.95347 | 35986 ft | 475 kts | 308° |
| 2026-04-27 17:10 | -4.79995 | -59.00679 | 35981 ft | 475 kts | 308° |
| 2026-04-27 17:10 | -4.76080 | -59.06012 | 35958 ft | 475 kts | 308° |
| 2026-04-27 17:11 | -4.72159 | -59.11344 | 35955 ft | 475 kts | 308° |
| 2026-04-27 17:11 | -4.66264 | -59.19336 | 35959 ft | 476 kts | 308° |
| 2026-04-27 17:12 | -4.60360 | -59.27334 | 35964 ft | 476 kts | 308° |
| 2026-04-27 17:13 | -4.56425 | -59.32673 | 35964 ft | 476 kts | 308° |
| 2026-04-27 17:13 | -4.52521 | -59.37980 | 35963 ft | 477 kts | 308° |
| 2026-04-27 17:14 | -4.48577 | -59.43328 | 35964 ft | 477 kts | 308° |
| 2026-04-27 17:14 | -4.44622 | -59.48668 | 35703 ft | 477 kts | 308° |
| 2026-04-27 17:14 | -4.42645 | -59.51341 | 35467 ft | 477 kts | 308° |
| 2026-04-27 17:15 | -4.40672 | -59.54017 | 35230 ft | 478 kts | 308° |
| 2026-04-27 17:15 | -4.38697 | -59.56697 | 34997 ft | 478 kts | 308° |
| 2026-04-27 17:15 | -4.36718 | -59.59378 | 34711 ft | 479 kts | 308° |
| 2026-04-27 17:15 | -4.34727 | -59.62077 | 33742 ft | 485 kts | 308° |
| 2026-04-27 17:16 | -4.32709 | -59.64813 | 32671 ft | 490 kts | 308° |
| 2026-04-27 17:16 | -4.30677 | -59.67566 | 31667 ft | 493 kts | 308° |
| 2026-04-27 17:16 | -4.28629 | -59.70338 | 30592 ft | 497 kts | 308° |
| 2026-04-27 17:16 | -4.26559 | -59.73137 | 29334 ft | 502 kts | 307° |
| 2026-04-27 17:17 | -4.24479 | -59.75951 | 28140 ft | 503 kts | 307° |
| 2026-04-27 17:17 | -4.22396 | -59.78769 | 26927 ft | 503 kts | 307° |
| 2026-04-27 17:17 | -4.20321 | -59.81580 | 26105 ft | 498 kts | 307° |
| 2026-04-27 17:18 | -4.16257 | -59.87086 | 24527 ft | 487 kts | 307° |
| 2026-04-27 17:18 | -4.14252 | -59.89796 | 23757 ft | 482 kts | 307° |
| 2026-04-27 17:18 | -4.12150 | -59.92391 | 22914 ft | 477 kts | 315° |
| 2026-04-27 17:18 | -4.09672 | -59.94550 | 22233 ft | 469 kts | 325° |
| 2026-04-27 17:19 | -4.06901 | -59.96212 | 21546 ft | 461 kts | 335° |
| 2026-04-27 17:19 | -4.03928 | -59.97345 | 20885 ft | 454 kts | 345° |
| 2026-04-27 17:19 | -4.00918 | -59.98243 | 20253 ft | 449 kts | 345° |
| 2026-04-27 17:19 | -3.97937 | -59.99134 | 19636 ft | 445 kts | 344° |
| 2026-04-27 17:20 | -3.94987 | -60.00016 | 19042 ft | 440 kts | 345° |
| 2026-04-27 17:20 | -3.92064 | -60.00888 | 18483 ft | 436 kts | 345° |
| 2026-04-27 17:20 | -3.89168 | -60.01753 | 17879 ft | 432 kts | 345° |
| 2026-04-27 17:20 | -3.86307 | -60.02611 | 17339 ft | 426 kts | 345° |
| 2026-04-27 17:21 | -3.83480 | -60.03458 | 16811 ft | 421 kts | 345° |
| 2026-04-27 17:21 | -3.80688 | -60.04295 | 16283 ft | 417 kts | 345° |
| 2026-04-27 17:21 | -3.77926 | -60.05124 | 15764 ft | 413 kts | 345° |
| 2026-04-27 17:21 | -3.75184 | -60.05943 | 15227 ft | 409 kts | 345° |
| 2026-04-27 17:22 | -3.72505 | -60.06742 | 14689 ft | 406 kts | 345° |
| 2026-04-27 17:22 | -3.69772 | -60.07557 | 14129 ft | 403 kts | 344° |
| 2026-04-27 17:22 | -3.67093 | -60.08357 | 13528 ft | 401 kts | 345° |
| 2026-04-27 17:22 | -3.64433 | -60.09154 | 12919 ft | 397 kts | 344° |
| 2026-04-27 17:23 | -3.61836 | -60.09932 | 12317 ft | 393 kts | 345° |
| 2026-04-27 17:23 | -3.59228 | -60.10711 | 11710 ft | 389 kts | 345° |
| 2026-04-27 17:23 | -3.56647 | -60.11484 | 11094 ft | 386 kts | 345° |
| 2026-04-27 17:23 | -3.54104 | -60.12247 | 10781 ft | 374 kts | 345° |
| 2026-04-27 17:24 | -3.51664 | -60.12979 | 10661 ft | 358 kts | 345° |
| 2026-04-27 17:24 | -3.49332 | -60.13678 | 10539 ft | 342 kts | 345° |
| 2026-04-27 17:24 | -3.47069 | -60.14356 | 10423 ft | 328 kts | 345° |
| 2026-04-27 17:24 | -3.44953 | -60.14989 | 10305 ft | 316 kts | 345° |
| 2026-04-27 17:25 | -3.42885 | -60.15607 | 10194 ft | 304 kts | 345° |
| 2026-04-27 17:25 | -3.40892 | -60.16201 | 10026 ft | 295 kts | 345° |
| 2026-04-27 17:25 | -3.38943 | -60.16782 | 9806 ft | 291 kts | 345° |
| 2026-04-27 17:25 | -3.36998 | -60.17362 | 9399 ft | 291 kts | 345° |
| 2026-04-27 17:26 | -3.35065 | -60.17939 | 9014 ft | 289 kts | 345° |
| 2026-04-27 17:26 | -3.33120 | -60.18522 | 8637 ft | 287 kts | 345° |
| 2026-04-27 17:26 | -3.31240 | -60.19086 | 8264 ft | 285 kts | 345° |
| 2026-04-27 17:26 | -3.29350 | -60.19653 | 7895 ft | 283 kts | 345° |
| 2026-04-27 17:27 | -3.27471 | -60.20215 | 7525 ft | 281 kts | 345° |
| 2026-04-27 17:27 | -3.25605 | -60.20770 | 7167 ft | 279 kts | 345° |
| 2026-04-27 17:27 | -3.23726 | -60.21228 | 6775 ft | 277 kts | 352° |
| 2026-04-27 17:27 | -3.21812 | -60.21543 | 6277 ft | 280 kts | 352° |
| 2026-04-27 17:28 | -3.19900 | -60.21858 | 5904 ft | 276 kts | 352° |
| 2026-04-27 17:28 | -3.17991 | -60.22175 | 5440 ft | 277 kts | 352° |
| 2026-04-27 17:28 | -3.14262 | -60.22890 | 4430 ft | 271 kts | 345° |
| 2026-04-27 17:29 | -3.12507 | -60.23542 | 3857 ft | 267 kts | 337° |
| 2026-04-27 17:29 | -3.10849 | -60.24232 | 3715 ft | 246 kts | 342° |
| 2026-04-27 17:29 | -3.09284 | -60.24733 | 3636 ft | 230 kts | 346° |
| 2026-04-27 17:29 | -3.07776 | -60.25077 | 3589 ft | 213 kts | 355° |
| 2026-04-27 17:30 | -3.06391 | -60.24996 | 3543 ft | 188 kts | 17° |
| 2026-04-27 17:30 | -3.04534 | -60.23749 | 3412 ft | 146 kts | 52° |
| 2026-04-27 17:30 | -3.04050 | -60.22875 | 3314 ft | 144 kts | 68° |
| 2026-04-27 17:31 | -3.03831 | -60.21901 | 3176 ft | 144 kts | 84° |
| 2026-04-27 17:31 | -3.03824 | -60.20899 | 3023 ft | 144 kts | 87° |
| 2026-04-27 17:31 | -3.03826 | -60.19893 | 2835 ft | 145 kts | 88° |
| 2026-04-27 17:31 | -3.03828 | -60.18879 | 2648 ft | 146 kts | 88° |
| 2026-04-27 17:32 | -3.03830 | -60.17861 | 2460 ft | 147 kts | 89° |
| 2026-04-27 17:32 | -3.03835 | -60.15825 | 2096 ft | 145 kts | 89° |
| 2026-04-27 17:32 | -3.03837 | -60.14817 | 1907 ft | 145 kts | 88° |
| 2026-04-27 17:33 | -3.03839 | -60.13813 | 1723 ft | 144 kts | 88° |
| 2026-04-27 17:33 | -3.03842 | -60.12810 | 1537 ft | 144 kts | 89° |
| 2026-04-27 17:33 | -3.03844 | -60.11806 | 1346 ft | 144 kts | 89° |
| 2026-04-27 17:33 | -3.03847 | -60.10805 | 1164 ft | 144 kts | 89° |
| 2026-04-27 17:34 | -3.03847 | -60.09807 | 979 ft | 143 kts | 89° |
| 2026-04-27 17:34 | -3.03849 | -60.08809 | 781 ft | 143 kts | 90° |
| 2026-04-27 17:34 | -3.03851 | -60.07827 | 603 ft | 144 kts | 90° |
| 2026-04-27 17:34 | -3.03855 | -60.06829 | 424 ft | 143 kts | 91° |
| 2026-04-27 17:35 | -3.03858 | -60.05842 | 285 ft | 141 kts | 90° |
| 2026-04-27 17:35 | -3.03860 | -60.04985 | 271 ft | 93 kts | 90° |
| 2026-04-27 17:35 | -3.03861 | -60.04532 | 273 ft | 55 kts | 90° |
| 2026-04-27 17:35 | -3.03862 | -60.04177 | 273 ft | 48 kts | 90° |
| 2026-04-27 17:36 | -3.03863 | -60.03882 | 271 ft | 25 kts | 89° |
| 2026-04-27 17:36 | -3.03780 | -60.03768 | 271 ft | 22 kts | 5° |
| 2026-04-27 17:36 | -3.03678 | -60.03865 | 274 ft | 22 kts | 288° |
| 2026-04-27 17:36 | -3.03635 | -60.04018 | 275 ft | 24 kts | 286° |
| 2026-04-27 17:37 | -3.03592 | -60.04181 | 276 ft | 25 kts | 285° |
| 2026-04-27 17:37 | -3.03497 | -60.04327 | 271 ft | 26 kts | 319° |
| 2026-04-27 17:37 | -3.03342 | -60.04410 | 271 ft | 24 kts | 301° |
| 2026-04-27 17:37 | -3.03345 | -60.04557 | 271 ft | 12 kts | 286° |
| 2026-04-27 17:38 | -3.03301 | -60.04571 | 271 ft | 6 kts | 356° |
| 2026-04-27 17:38 | -3.03278 | -60.04574 | 271 ft | 0 kts | 352° |